Terminal Aerodrome Forecast
Issued by NWS

Home | Current Version | Previous Version | Text Only | Print | Product List | Glossary On
Versions: 1 2 3 4 5 6 7 8 9 10 11 12 13 14 15 16 17 18 19 20 21 22 23
000
FTUS41 KPBZ 250643 AAA
TAFFKL
TAF AMD
KFKL 250643Z 2507/2606 19006KT P6SM SCT040 BKN045 OVC110
     FM250900 19004KT 3SM BR BKN007
     FM251300 23006KT P6SM VCTS BKN030CB
     FM252300 27006KT P6SM SCT030
     FM260300 28003KT P6SM FEW250
      AMD LTD TO CLD VIS AND WIND=

USA.gov is the U.S. government's official web portal to all federal, state and local government web resources and services.